Chassell, Michigan
Current Conditions -  °F | °C
As of 12:53 PM on Wednesday 28 Jan 2015 (Local Time) from KCMX Reporting Station
Overcast Overcast  
Wind Chill: 19°   Ceiling: 5500
Heat Index: 28°   Visibility: 10mi
Dew Point: 22°   Wind: 10mph
Humidity: 78%   Direction: 130°SE
Pressure: 30"   Gusts: NA
Location:  47.03°N, 88.53°W
Report Text: KCMX 281753Z AUTO 13009KT 10SM BKN055 OVC070 M02/M06 A3000 RMK AO2 SLP175 T10221056 11022 21061 58028
Loading
Personal Weather Stations






























Interactive Weather Map New forecast layout! Learn more

10-Day Weather Forecast

Advertisements
Track Severe Weather on mobile